Time;durP1;ratioP1;P1;durP2;ratioP2;P2;SDS_P1;SDS_P2;PMS_P1;PMS_P2;Temp;Humidity;BMP_temperature;BMP_pressure;BME280_temperature;BME280_humidity;BME280_pressure;Samples;Min_cycle;Max_cycle;Signal;HPM_P1;HPM_P2
2024/02/03 06:00:25;;;;;;;3.60;1.10;;;6.10;58.10;;;;;;4854405;23;20071;-80
2024/02/03 06:02:30;;;;;;;3.42;1.08;;;6.10;58.30;;;;;;4061384;29;21116;-78
2024/02/03 06:04:31;;;;;;;2.95;1.30;;;6.10;58.50;;;;;;4067775;29;20052;-79
2024/02/03 06:06:33;;;;;;;3.33;1.20;;;6.10;58.70;;;;;;4071196;29;20541;-73
2024/02/03 06:08:35;;;;;;;2.30;1.05;;;6.00;59.00;;;;;;4070547;29;20099;-78
2024/02/03 06:10:37;;;;;;;3.50;1.10;;;5.90;59.10;;;;;;4070914;29;20048;-79
2024/02/03 06:12:38;;;;;;;2.53;1.00;;;5.90;59.10;;;;;;4067984;29;20044;-79
2024/02/03 06:14:40;;;;;;;2.50;1.05;;;5.80;59.20;;;;;;4058020;29;20455;-79
2024/02/03 06:16:43;;;;;;;2.17;1.00;;;5.80;59.00;;;;;;4070290;29;20048;-80
2024/02/03 06:18:44;;;;;;;3.40;0.98;;;5.90;59.00;;;;;;4060603;29;20120;-79
2024/02/03 06:20:47;;;;;;;2.67;1.15;;;5.80;59.60;;;;;;4065754;29;20052;-80
2024/02/03 06:22:49;;;;;;;2.65;1.20;;;5.80;59.80;;;;;;4065250;29;20104;-78
2024/02/03 06:24:51;;;;;;;3.30;1.00;;;5.80;59.90;;;;;;4059293;29;20060;-77
2024/02/03 06:26:52;;;;;;;2.88;1.10;;;5.70;60.10;;;;;;4060356;29;20142;-77
2024/02/03 06:28:54;;;;;;;3.47;1.20;;;5.70;60.50;;;;;;4070568;29;20052;-78
2024/02/03 06:30:56;;;;;;;4.07;1.30;;;5.60;60.50;;;;;;4070874;29;20048;-80
2024/02/03 06:32:59;;;;;;;5.18;1.75;;;5.70;59.60;;;;;;4070299;29;20056;-79
2024/02/03 06:35:02;;;;;;;3.08;1.13;;;5.60;59.70;;;;;;4070075;29;20052;-75
2024/02/03 06:37:04;;;;;;;4.68;1.33;;;5.30;60.60;;;;;;4070828;29;20503;-79
2024/02/03 06:39:08;;;;;;;2.90;1.10;;;5.30;61.00;;;;;;4070762;29;20048;-79
2024/02/03 06:41:14;;;;;;;3.28;1.35;;;5.30;60.60;;;;;;4062246;29;20197;-79
2024/02/03 06:43:16;;;;;;;3.17;1.33;;;5.40;60.60;;;;;;4066227;29;20408;-77
2024/02/03 06:45:18;;;;;;;4.75;1.35;;;5.30;61.30;;;;;;4070657;29;20104;-78
2024/02/03 06:47:20;;;;;;;2.28;1.02;;;5.30;61.60;;;;;;4071106;29;20081;-78
2024/02/03 06:49:23;;;;;;;2.58;1.10;;;5.40;61.20;;;;;;4070129;29;20048;-79
2024/02/03 06:51:25;;;;;;;6.82;1.63;;;5.40;61.20;;;;;;4070388;29;20553;-79
2024/02/03 06:53:26;;;;;;;3.58;1.65;;;5.40;61.30;;;;;;4070049;29;20115;-79
2024/02/03 06:55:28;;;;;;;3.10;1.42;;;5.40;61.20;;;;;;4067343;29;20048;-79
2024/02/03 06:57:30;;;;;;;3.17;1.48;;;5.30;61.80;;;;;;4064303;29;20125;-78
2024/02/03 06:59:32;;;;;;;3.55;1.13;;;5.10;62.60;;;;;;4071149;29;20052;-79
2024/02/03 07:01:33;;;;;;;2.88;1.20;;;5.10;62.80;;;;;;4071944;29;20064;-79
2024/02/03 07:03:35;;;;;;;3.05;1.27;;;5.20;62.70;;;;;;4074722;29;20071;-77
2024/02/03 07:05:40;;;;;;;3.33;1.23;;;5.20;62.40;;;;;;4071242;29;20460;-81
2024/02/03 07:07:41;;;;;;;3.35;1.38;;;5.30;62.70;;;;;;4069941;29;20087;-80
2024/02/03 07:09:43;;;;;;;4.50;1.20;;;5.30;62.20;;;;;;4070380;29;20116;-79
2024/02/03 07:11:45;;;;;;;2.97;1.00;;;5.20;62.50;;;;;;4070061;29;20124;-78
2024/02/03 07:13:47;;;;;;;4.25;1.10;;;5.10;62.80;;;;;;4069646;29;20108;-81
2024/02/03 07:15:49;;;;;;;2.78;1.05;;;5.20;62.90;;;;;;4065835;29;20440;-80
2024/02/03 07:17:50;;;;;;;6.75;1.10;;;5.20;62.90;;;;;;4065806;29;20542;-78
2024/02/03 07:19:52;;;;;;;2.45;1.13;;;4.90;62.50;;;;;;4065897;29;20048;-80
2024/02/03 07:21:56;;;;;;;3.00;1.10;;;4.90;63.50;;;;;;4045633;29;20561;-80
2024/02/03 07:23:57;;;;;;;3.92;1.20;;;4.90;63.50;;;;;;4071459;29;20108;-79
2024/02/03 07:25:59;;;;;;;3.83;1.00;;;5.00;63.80;;;;;;4069948;29;20186;-78
2024/02/03 07:28:00;;;;;;;3.55;1.10;;;5.10;63.80;;;;;;4071165;29;20044;-80
2024/02/03 07:30:02;;;;;;;4.45;1.23;;;5.10;63.70;;;;;;4070068;29;20473;-80
2024/02/03 07:32:04;;;;;;;3.38;1.25;;;5.10;63.80;;;;;;4069900;29;20044;-80
2024/02/03 07:34:06;;;;;;;2.97;1.05;;;5.10;63.80;;;;;;4067832;29;20116;-79
2024/02/03 07:36:08;;;;;;;6.65;2.00;;;5.10;63.50;;;;;;4059073;29;20084;-78
2024/02/03 07:38:11;;;;;;;5.82;1.60;;;5.10;63.90;;;;;;4069820;29;20112;-80
2024/02/03 07:40:13;;;;;;;5.65;1.80;;;5.00;63.70;;;;;;4070433;29;20104;-80
2024/02/03 07:42:15;;;;;;;4.25;1.60;;;5.10;63.60;;;;;;4069992;29;20112;-78
2024/02/03 07:44:16;;;;;;;6.93;2.25;;;5.10;63.90;;;;;;4069992;29;20144;-81
2024/02/03 07:46:18;;;;;;;6.70;2.80;;;5.00;64.20;;;;;;4084226;29;20055;-80
2024/02/03 07:48:20;;;;;;;8.07;3.75;;;5.00;64.10;;;;;;4074316;29;20100;-79
2024/02/03 07:50:22;;;;;;;8.38;4.25;;;5.10;64.10;;;;;;4060375;29;20052;-79
2024/02/03 07:52:24;;;;;;;7.82;3.75;;;5.10;64.30;;;;;;4066428;29;20188;-79
2024/02/03 07:54:27;;;;;;;7.70;3.55;;;5.00;63.60;;;;;;4069760;29;20048;-80
2024/02/03 07:56:29;;;;;;;8.60;4.20;;;5.10;63.70;;;;;;4070527;29;20116;-79
2024/02/03 07:58:31;;;;;;;7.75;3.85;;;4.90;64.40;;;;;;4069496;29;20044;-80
2024/02/03 08:00:33;;;;;;;5.47;2.60;;;4.90;65.00;;;;;;4069496;29;20087;-79
2024/02/03 08:02:35;;;;;;;5.20;2.70;;;4.90;64.90;;;;;;4079535;29;20048;-79
2024/02/03 08:04:37;;;;;;;3.53;1.58;;;4.90;65.20;;;;;;4071185;29;20447;-79
2024/02/03 08:06:38;;;;;;;3.00;1.50;;;4.80;64.30;;;;;;4069747;29;20096;-79
2024/02/03 08:08:40;;;;;;;4.55;2.13;;;4.80;63.10;;;;;;4069526;29;20101;-79
2024/02/03 08:10:43;;;;;;;5.93;2.78;;;4.80;63.00;;;;;;4069276;29;20044;-80
2024/02/03 08:12:44;;;;;;;5.15;2.90;;;4.80;63.80;;;;;;4052122;29;20136;-79
2024/02/03 08:14:45;;;;;;;5.20;2.63;;;4.80;65.20;;;;;;4069082;29;20060;-80
2024/02/03 08:16:47;;;;;;;5.30;2.60;;;4.90;65.30;;;;;;4060256;29;20044;-80
2024/02/03 08:18:49;;;;;;;4.97;2.40;;;5.00;65.10;;;;;;4066032;29;20069;-80
2024/02/03 08:20:50;;;;;;;4.60;2.30;;;5.00;64.50;;;;;;4069958;29;20052;-80
2024/02/03 08:22:52;;;;;;;4.20;2.40;;;5.10;64.40;;;;;;4071693;29;20100;-84
2024/02/03 08:24:54;;;;;;;5.20;2.00;;;5.20;64.00;;;;;;4070525;29;20052;-81
2024/02/03 08:26:57;;;;;;;3.70;1.90;;;5.20;63.80;;;;;;4070843;29;20236;-83
2024/02/03 08:28:59;;;;;;;5.20;2.50;;;5.30;63.50;;;;;;4071147;29;20056;-81
2024/02/03 08:31:01;;;;;;;5.15;2.28;;;5.40;63.50;;;;;;4071113;29;20096;-77
2024/02/03 08:33:03;;;;;;;4.30;2.20;;;5.40;63.60;;;;;;4058305;29;20056;-77
2024/02/03 08:35:05;;;;;;;5.95;2.45;;;5.50;63.50;;;;;;4064191;29;20454;-78
2024/02/03 08:37:06;;;;;;;4.90;2.30;;;5.30;63.70;;;;;;4070122;29;20048;-80
2024/02/03 08:39:08;;;;;;;4.43;2.28;;;5.40;63.70;;;;;;4069149;29;20052;-79
2024/02/03 08:41:10;;;;;;;4.97;2.47;;;5.40;63.90;;;;;;4065316;29;20055;-80
2024/02/03 08:43:13;;;;;;;4.47;2.20;;;5.50;63.80;;;;;;4061680;29;20104;-84
2024/02/03 08:45:15;;;;;;;5.47;2.50;;;5.50;63.90;;;;;;4067259;29;20059;-83
2024/02/03 08:47:17;;;;;;;6.88;2.15;;;5.60;64.10;;;;;;4065300;29;20111;-79
2024/02/03 08:49:18;;;;;;;5.70;2.58;;;5.60;64.50;;;;;;4062384;29;20104;-79
2024/02/03 08:51:20;;;;;;;7.05;2.80;;;5.70;64.30;;;;;;4037799;29;20052;-80
2024/02/03 08:53:22;;;;;;;6.35;2.90;;;5.70;64.50;;;;;;4062115;29;20080;-79
2024/02/03 08:55:23;;;;;;;6.57;3.00;;;5.80;64.50;;;;;;4057565;29;20395;-79
2024/02/03 08:57:25;;;;;;;6.85;3.08;;;5.90;66.50;;;;;;4058157;29;20469;-76
2024/02/03 08:59:28;;;;;;;7.07;2.90;;;5.90;65.30;;;;;;4059181;29;20052;-80
2024/02/03 09:01:30;;;;;;;4.93;2.50;;;5.90;64.70;;;;;;4061968;29;20052;-76
2024/02/03 09:03:31;;;;;;;4.68;2.45;;;6.00;64.60;;;;;;4059603;29;20055;-79
2024/02/03 09:05:33;;;;;;;5.53;2.63;;;6.00;64.50;;;;;;4060423;29;20049;-78
2024/02/03 09:07:35;;;;;;;5.45;2.45;;;6.10;64.70;;;;;;4070132;29;20530;-78
2024/02/03 09:09:37;;;;;;;5.25;2.45;;;6.10;64.90;;;;;;4057953;29;20044;-78
2024/02/03 09:11:39;;;;;;;4.32;2.30;;;6.20;64.90;;;;;;4062084;29;20044;-84
2024/02/03 09:13:40;;;;;;;5.40;2.55;;;6.20;64.90;;;;;;4066830;29;20044;-84
2024/02/03 09:15:43;;;;;;;4.63;2.55;;;6.30;65.00;;;;;;4064753;29;20443;-80
2024/02/03 09:17:44;;;;;;;5.03;2.50;;;6.30;64.80;;;;;;4060483;29;20051;-85
2024/02/03 09:19:45;;;;;;;4.90;2.40;;;6.40;64.60;;;;;;4059906;29;20409;-84
2024/02/03 09:21:47;;;;;;;5.00;2.22;;;6.40;64.10;;;;;;4059670;29;20045;-83
2024/02/03 09:23:49;;;;;;;5.00;2.40;;;6.50;63.60;;;;;;4066264;29;20520;-81
2024/02/03 09:25:51;;;;;;;4.68;2.40;;;6.50;63.50;;;;;;4068117;29;20458;-78
2024/02/03 09:27:53;;;;;;;5.88;2.80;;;6.60;63.30;;;;;;4068229;29;20052;-79
2024/02/03 09:29:55;;;;;;;5.50;2.28;;;6.70;63.00;;;;;;4068205;29;20055;-81
2024/02/03 09:31:58;;;;;;;5.18;2.10;;;6.70;62.60;;;;;;4068421;29;20052;-81
2024/02/03 09:34:03;;;;;;;6.05;2.28;;;6.80;62.60;;;;;;4068535;29;20040;-79
2024/02/03 09:36:06;;;;;;;4.67;2.47;;;6.90;62.90;;;;;;4075237;29;20048;-79
2024/02/03 09:38:08;;;;;;;5.43;2.50;;;7.00;63.10;;;;;;4070535;29;20113;-78
2024/02/03 09:40:19;;;;;;;4.07;2.20;;;7.10;63.90;;;;;;4071287;29;20104;-79
2024/02/03 09:42:21;;;;;;;6.55;2.42;;;7.20;64.00;;;;;;4068524;29;20084;-79
2024/02/03 09:44:23;;;;;;;4.72;2.35;;;7.30;64.10;;;;;;4051291;29;20406;-79
2024/02/03 09:46:25;;;;;;;5.20;2.47;;;7.40;64.10;;;;;;4068231;29;20096;-78
2024/02/03 09:48:28;;;;;;;5.22;2.47;;;7.50;63.90;;;;;;4068186;29;20108;-78
2024/02/03 09:50:29;;;;;;;5.43;2.30;;;7.60;64.00;;;;;;4068321;29;20077;-77
2024/02/03 09:52:31;;;;;;;5.20;2.50;;;7.70;63.80;;;;;;4068441;29;20044;-79
2024/02/03 09:54:33;;;;;;;5.28;2.20;;;7.80;63.50;;;;;;4068372;29;20447;-81
2024/02/03 09:56:35;;;;;;;4.15;2.35;;;7.80;63.20;;;;;;4068749;29;20048;-81
2024/02/03 09:58:37;;;;;;;4.80;2.60;;;7.90;63.00;;;;;;4068582;29;20092;-81
2024/02/03 10:00:39;;;;;;;4.70;2.60;;;8.00;62.90;;;;;;4068385;29;20100;-81
2024/02/03 10:02:41;;;;;;;4.82;2.35;;;8.00;63.40;;;;;;4068331;29;20128;-78
2024/02/03 10:04:46;;;;;;;5.85;3.00;;;8.10;63.30;;;;;;4068072;29;20048;-79
2024/02/03 10:06:48;;;;;;;5.78;3.25;;;8.20;62.60;;;;;;4068252;29;20048;-80
2024/02/03 10:08:54;;;;;;;5.53;3.00;;;8.30;62.60;;;;;;4067689;29;20236;-80
2024/02/03 10:10:56;;;;;;;;;;;8.40;62.50;;;;;;4064463;29;20131;-79
2024/02/03 10:13:07;;;;;;;12.73;4.65;;;8.40;62.30;;;;;;4062827;29;19927;-81
2024/02/03 10:15:10;;;;;;;8.30;4.00;;;8.50;62.30;;;;;;4066332;29;20052;-82
2024/02/03 10:17:20;;;;;;;6.97;3.63;;;8.50;62.30;;;;;;4068797;29;20048;-84
2024/02/03 10:19:22;;;;;;;5.10;2.85;;;8.60;62.10;;;;;;4063876;29;20130;-83
2024/02/03 10:21:25;;;;;;;5.18;2.92;;;8.70;62.70;;;;;;4074359;29;20048;-83
2024/02/03 10:23:27;;;;;;;5.60;2.78;;;8.70;61.20;;;;;;4065462;29;20454;-81
2024/02/03 10:25:31;;;;;;;4.85;2.72;;;8.80;60.90;;;;;;4066360;29;20039;-81
2024/02/03 10:27:32;;;;;;;7.57;3.60;;;8.90;60.80;;;;;;4068205;29;20054;-80
2024/02/03 10:29:34;;;;;;;9.40;4.80;;;9.00;61.10;;;;;;4065368;29;20349;-81
2024/02/03 10:31:36;;;;;;;7.03;3.53;;;9.00;61.30;;;;;;4065787;29;20056;-80
2024/02/03 10:33:36;;;;;;;6.43;3.67;;;9.20;61.20;;;;;;4059502;29;20048;-82
2024/02/03 10:35:39;;;;;;;7.32;3.90;;;9.20;61.10;;;;;;4073231;29;20056;-82
2024/02/03 10:37:42;;;;;;;7.90;3.95;;;9.30;60.90;;;;;;4073692;29;20064;-85
2024/02/03 10:39:44;;;;;;;6.20;3.42;;;9.30;60.90;;;;;;4071612;29;20059;-79
2024/02/03 10:41:48;;;;;;;6.10;3.00;;;9.40;60.60;;;;;;4059862;29;20087;-78
2024/02/03 10:43:54;;;;;;;5.55;3.25;;;9.50;60.90;;;;;;4059534;29;20052;-80
2024/02/03 10:46:01;;;;;;;5.03;2.95;;;9.40;61.40;;;;;;4061753;29;20459;-79
2024/02/03 10:48:07;;;;;;;7.57;3.10;;;9.50;61.40;;;;;;4067176;29;20108;-81
2024/02/03 10:50:13;;;;;;;4.78;2.78;;;9.50;60.70;;;;;;4062503;29;20108;-79
2024/02/03 10:52:16;;;;;;;6.28;3.10;;;9.50;60.90;;;;;;4057778;29;20081;-80
2024/02/03 10:54:23;;;;;;;7.38;3.50;;;9.60;61.00;;;;;;4057414;29;20049;-80
2024/02/03 10:56:29;;;;;;;5.57;3.30;;;9.60;60.90;;;;;;4056519;29;20515;-78
2024/02/03 10:58:31;;;;;;;;;;;9.60;60.90;;;;;;4066438;29;20431;-80
2024/02/03 11:00:33;;;;;;;5.88;2.70;;;9.50;62.00;;;;;;4061568;29;19931;-80
2024/02/03 11:02:35;;;;;;;5.38;3.10;;;9.60;61.80;;;;;;4061898;29;20056;-80
2024/02/03 11:04:39;;;;;;;5.78;3.10;;;9.70;61.80;;;;;;4062119;29;20108;-80
2024/02/03 11:06:41;;;;;;;6.18;3.40;;;9.70;62.00;;;;;;4063214;29;20135;-79
2024/02/03 11:08:43;;;;;;;6.50;3.10;;;9.60;61.70;;;;;;4055082;29;20137;-78
2024/02/03 11:10:50;;;;;;;6.70;3.20;;;9.60;63.10;;;;;;4065936;29;20127;-83
2024/02/03 11:12:50;;;;;;;5.80;2.97;;;9.70;63.60;;;;;;4058667;29;20041;-80
2024/02/03 11:14:58;;;;;;;4.80;2.88;;;9.80;64.20;;;;;;4061614;29;20044;-81
2024/02/03 11:17:03;;;;;;;5.10;3.13;;;9.80;63.60;;;;;;4061687;29;20464;-80
2024/02/03 11:19:05;;;;;;;6.18;2.75;;;9.90;62.80;;;;;;4055836;29;20052;-80
2024/02/03 11:21:07;;;;;;;5.57;2.83;;;9.90;63.20;;;;;;4062342;29;20048;-79
2024/02/03 11:23:13;;;;;;;4.47;2.60;;;10.00;63.30;;;;;;4070148;29;20102;-81
2024/02/03 11:25:16;;;;;;;;;;;10.00;63.40;;;;;;4070272;29;20048;-80
2024/02/03 11:27:19;;;;;;;6.53;3.13;;;10.00;63.30;;;;;;4070234;29;19930;-80
2024/02/03 11:29:20;;;;;;;6.95;3.20;;;10.00;63.40;;;;;;4070218;29;20059;-80
2024/02/03 11:31:25;;;;;;;4.90;2.80;;;10.10;63.50;;;;;;4070198;29;20048;-80
2024/02/03 11:33:26;;;;;;;5.90;2.90;;;10.10;63.70;;;;;;4069962;29;20478;-79
2024/02/03 11:35:28;;;;;;;5.63;2.60;;;10.10;64.30;;;;;;4070186;29;20056;-79
2024/02/03 11:37:30;;;;;;;4.75;2.72;;;10.20;64.60;;;;;;4070223;29;20048;-79
2024/02/03 11:39:34;;;;;;;6.57;2.70;;;10.30;64.40;;;;;;4070205;29;20052;-80
2024/02/03 11:41:36;;;;;;;5.72;2.58;;;10.30;64.40;;;;;;4070086;29;20472;-80
2024/02/03 11:43:40;;;;;;;4.50;2.42;;;10.40;64.20;;;;;;4070120;29;20474;-78
2024/02/03 11:45:46;;;;;;;4.75;2.80;;;10.40;64.90;;;;;;4068532;29;20109;-77
2024/02/03 11:47:48;;;;;;;5.00;2.80;;;10.30;65.50;;;;;;4070059;29;20130;-79
2024/02/03 11:49:51;;;;;;;5.93;2.53;;;10.40;66.20;;;;;;4070047;29;20108;-79
2024/02/03 11:51:59;;;;;;;4.30;2.33;;;10.40;67.00;;;;;;4069958;29;20103;-80
2024/02/03 11:54:04;;;;;;;4.35;2.33;;;10.30;68.40;;;;;;4069650;29;20084;-78
2024/02/03 11:56:07;;;;;;;6.38;2.35;;;10.50;68.80;;;;;;4069948;29;20091;-80
2024/02/03 11:58:08;;;;;;;4.25;2.22;;;10.50;69.00;;;;;;4069906;29;20131;-78
2024/02/03 12:00:14;;;;;;;4.15;2.40;;;10.40;69.50;;;;;;4070034;29;20051;-80
2024/02/03 12:02:16;;;;;;;4.40;2.28;;;10.30;70.20;;;;;;4070066;29;20064;-81
2024/02/03 12:04:18;;;;;;;3.97;2.17;;;10.40;70.20;;;;;;4069429;29;20134;-80
2024/02/03 12:06:22;;;;;;;3.88;2.20;;;10.40;70.50;;;;;;4069775;29;20483;-78
2024/02/03 12:08:24;;;;;;;4.53;2.30;;;10.40;70.70;;;;;;4069709;29;20126;-78
2024/02/03 12:10:26;;;;;;;4.03;2.25;;;10.40;70.90;;;;;;4069547;29;20115;-79
2024/02/03 12:12:28;;;;;;;5.47;2.72;;;10.40;71.20;;;;;;4069534;29;20079;-80
2024/02/03 12:14:30;;;;;;;4.68;2.80;;;10.50;69.90;;;;;;4069503;29;20052;-79
2024/02/03 12:16:35;;;;;;;5.72;3.17;;;10.60;68.50;;;;;;4070599;29;20504;-77
2024/02/03 12:18:37;;;;;;;5.22;2.85;;;10.70;67.90;;;;;;4071639;29;20075;-82
2024/02/03 12:20:39;;;;;;;5.20;2.85;;;10.90;67.70;;;;;;4069607;29;20052;-79
2024/02/03 12:22:41;;;;;;;7.07;3.08;;;11.10;67.20;;;;;;4069473;29;20063;-77
2024/02/03 12:24:43;;;;;;;8.90;2.70;;;11.20;66.50;;;;;;4069546;29;20064;-79
2024/02/03 12:26:45;;;;;;;5.20;2.90;;;11.20;65.30;;;;;;4069680;29;20058;-79
2024/02/03 12:28:48;;;;;;;5.43;3.00;;;11.30;64.60;;;;;;4069419;29;20059;-78
2024/02/03 12:30:55;;;;;;;3.97;2.42;;;11.30;64.20;;;;;;4069518;29;20052;-81
2024/02/03 12:32:58;;;;;;;5.20;2.85;;;11.30;64.10;;;;;;4069367;29;20573;-79
2024/02/03 12:34:59;;;;;;;6.47;2.40;;;11.40;63.90;;;;;;4069473;29;20139;-80
2024/02/03 12:37:02;;;;;;;6.20;2.80;;;11.50;63.50;;;;;;4052527;29;20048;-78
2024/02/03 12:39:04;;;;;;;4.72;2.80;;;11.70;63.50;;;;;;4069320;29;20048;-80
2024/02/03 12:41:06;;;;;;;6.43;2.80;;;11.70;62.20;;;;;;4069235;29;20052;-80
2024/02/03 12:43:08;;;;;;;5.75;2.67;;;11.80;62.10;;;;;;4069389;29;20048;-80
2024/02/03 12:45:10;;;;;;;4.25;2.50;;;11.90;61.80;;;;;;4069066;29;20060;-79
2024/02/03 12:47:12;;;;;;;5.60;2.47;;;12.10;61.50;;;;;;4069154;29;20437;-79
2024/02/03 12:49:15;;;;;;;5.72;2.88;;;12.40;62.40;;;;;;4069234;29;20435;-79
2024/02/03 12:51:17;;;;;;;7.30;2.60;;;12.70;61.10;;;;;;4069526;29;20048;-79
2024/02/03 12:53:19;;;;;;;6.07;2.92;;;12.80;60.60;;;;;;4069673;29;20052;-80
2024/02/03 12:55:20;;;;;;;6.20;2.83;;;12.80;59.50;;;;;;4068793;29;20063;-79
2024/02/03 12:57:23;;;;;;;4.72;2.50;;;12.90;59.30;;;;;;4068982;29;20048;-78
2024/02/03 12:59:25;;;;;;;4.78;2.80;;;13.00;60.00;;;;;;4069001;29;20048;-80
2024/02/03 13:01:28;;;;;;;5.60;2.50;;;13.00;58.50;;;;;;4068647;29;20051;-80
2024/02/03 13:03:28;;;;;;;6.40;2.60;;;12.90;60.30;;;;;;4068687;29;20052;-80
2024/02/03 13:05:32;;;;;;;4.72;1.70;;;13.30;59.60;;;;;;4068907;29;20135;-80
2024/02/03 13:07:34;;;;;;;3.50;1.70;;;13.10;59.90;;;;;;4068952;29;20096;-80
2024/02/03 13:09:36;;;;;;;2.92;1.42;;;13.00;60.50;;;;;;4068913;29;20145;-78
2024/02/03 13:11:39;;;;;;;3.20;1.50;;;12.90;61.90;;;;;;4068677;29;20056;-79
2024/02/03 13:13:41;;;;;;;2.90;1.35;;;12.60;62.50;;;;;;4068917;29;20502;-80
2024/02/03 13:15:42;;;;;;;3.20;1.55;;;12.10;63.70;;;;;;4068906;29;20044;-78
2024/02/03 13:17:45;;;;;;;3.53;1.60;;;11.90;65.00;;;;;;4068704;29;20048;-79
2024/02/03 13:19:46;;;;;;;3.20;1.30;;;12.10;64.90;;;;;;4058050;29;20084;-79
2024/02/03 13:21:50;;;;;;;2.83;1.42;;;12.60;63.40;;;;;;4053212;29;20109;-80
2024/02/03 13:23:53;;;;;;;3.00;1.20;;;13.10;61.70;;;;;;4060752;29;20100;-78
2024/02/03 13:25:55;;;;;;;2.78;1.20;;;12.90;61.80;;;;;;4068723;29;20669;-79
2024/02/03 13:27:57;;;;;;;3.72;1.30;;;12.80;62.60;;;;;;4068153;29;20056;-78
2024/02/03 13:29:58;;;;;;;2.58;1.13;;;13.30;60.80;;;;;;4068220;29;20096;-75
2024/02/03 13:32:00;;;;;;;3.72;1.30;;;14.30;58.10;;;;;;4068927;29;20120;-76
2024/02/03 13:34:03;;;;;;;2.50;1.10;;;13.90;58.50;;;;;;4068510;29;20044;-78
2024/02/03 13:36:06;;;;;;;3.22;1.55;;;13.70;59.00;;;;;;4068309;29;20459;-77
2024/02/03 13:38:10;;;;;;;3.50;1.60;;;14.10;59.10;;;;;;4068686;29;20096;-76
2024/02/03 13:40:12;;;;;;;3.58;1.30;;;17.70;53.20;;;;;;4064809;29;20485;-77
2024/02/03 13:42:16;;;;;;;2.22;1.10;;;19.60;47.60;;;;;;4066733;29;20056;-75
2024/02/03 13:44:18;;;;;;;3.05;1.38;;;18.50;49.20;;;;;;4066335;29;20059;-78
2024/02/03 13:46:20;;;;;;;3.78;1.40;;;20.30;46.60;;;;;;4066366;29;20507;-78
2024/02/03 13:48:22;;;;;;;3.10;1.38;;;21.70;43.40;;;;;;4066162;29;20060;-79
2024/02/03 13:50:24;;;;;;;3.05;1.58;;;23.50;39.70;;;;;;4069207;29;20108;-75
2024/02/03 13:52:25;;;;;;;3.10;1.20;;;24.80;35.80;;;;;;4069568;29;20402;-77
2024/02/03 13:54:28;;;;;;;2.60;1.10;;;25.20;35.60;;;;;;4069452;29;20583;-75
2024/02/03 13:56:29;;;;;;;3.30;1.35;;;20.90;38.80;;;;;;4069251;29;20052;-77
2024/02/03 13:58:31;;;;;;;2.63;1.40;;;18.50;45.00;;;;;;4069503;29;20062;-76
2024/02/03 14:00:34;;;;;;;3.63;1.30;;;16.90;48.10;;;;;;4068866;29;20052;-76
2024/02/03 14:02:36;;;;;;;4.32;1.40;;;17.80;48.70;;;;;;4068937;29;20048;-78
2024/02/03 14:04:39;;;;;;;2.72;1.35;;;19.10;46.30;;;;;;4069194;29;20060;-76
2024/02/03 14:06:41;;;;;;;3.00;1.20;;;21.40;42.50;;;;;;4069378;29;20063;-76
2024/02/03 14:08:43;;;;;;;3.03;1.33;;;19.60;43.00;;;;;;4069205;29;20056;-77
2024/02/03 14:10:47;;;;;;;2.90;1.35;;;17.90;46.50;;;;;;4069231;29;20048;-76
2024/02/03 14:12:49;;;;;;;2.72;1.30;;;19.80;45.00;;;;;;4068275;29;20044;-76
2024/02/03 14:14:51;;;;;;;2.95;1.10;;;22.40;41.00;;;;;;4068230;29;20056;-74
2024/02/03 14:16:52;;;;;;;2.30;1.00;;;21.30;38.60;;;;;;4062727;29;20101;-78
2024/02/03 14:18:54;;;;;;;2.80;1.02;;;21.90;39.20;;;;;;4070283;29;20672;-78
2024/02/03 14:20:55;;;;;;;1.67;0.80;;;21.80;37.90;;;;;;4068850;29;20056;-77
2024/02/03 14:22:57;;;;;;;1.70;0.90;;;20.60;39.80;;;;;;4069215;29;20753;-79
2024/02/03 14:24:59;;;;;;;1.88;0.90;;;19.10;43.00;;;;;;4070697;29;20056;-78
2024/02/03 14:27:03;;;;;;;2.20;0.70;;;17.80;46.00;;;;;;4069432;29;20059;-78
2024/02/03 14:29:05;;;;;;;2.50;0.80;;;16.70;48.10;;;;;;4068830;29;20135;-77
2024/02/03 14:31:07;;;;;;;2.33;0.90;;;15.40;51.90;;;;;;4069357;29;20060;-77
2024/02/03 14:33:08;;;;;;;2.38;0.90;;;14.60;54.00;;;;;;4067102;29;20063;-78
2024/02/03 14:35:10;;;;;;;2.70;1.00;;;14.20;55.60;;;;;;4069381;29;20108;-80
2024/02/03 14:37:12;;;;;;;2.80;0.90;;;14.10;56.20;;;;;;4069232;29;20056;-77
2024/02/03 14:39:18;;;;;;;2.00;0.80;;;14.10;56.50;;;;;;4069859;29;20052;-77
2024/02/03 14:41:21;;;;;;;1.75;0.80;;;13.70;57.20;;;;;;4059674;29;20421;-77
2024/02/03 14:43:24;;;;;;;2.03;0.70;;;13.50;57.90;;;;;;4069217;29;20063;-78
2024/02/03 14:45:25;;;;;;;2.33;0.85;;;13.50;58.10;;;;;;4067654;29;20048;-77
2024/02/03 14:47:27;;;;;;;3.28;1.30;;;13.80;57.90;;;;;;4069063;29;20066;-77
2024/02/03 14:49:29;;;;;;;3.20;1.50;;;13.70;58.00;;;;;;4068601;29;20062;-76
2024/02/03 14:51:31;;;;;;;3.00;1.50;;;13.90;58.00;;;;;;4068293;29;20048;-77
2024/02/03 14:53:33;;;;;;;2.92;1.38;;;13.90;57.70;;;;;;4069108;29;20144;-76
2024/02/03 14:55:35;;;;;;;2.70;1.40;;;13.80;57.80;;;;;;4067992;29;20502;-79
2024/02/03 14:57:36;;;;;;;4.40;1.63;;;13.80;58.00;;;;;;4068201;29;20056;-79
2024/02/03 14:59:39;;;;;;;4.25;2.00;;;13.80;58.30;;;;;;4067961;29;20603;-79
2024/02/03 15:01:40;;;;;;;2.92;1.60;;;13.80;58.50;;;;;;4068408;29;20506;-79
2024/02/03 15:03:42;;;;;;;4.15;1.80;;;13.80;58.60;;;;;;4068556;29;20052;-79
2024/02/03 15:05:44;;;;;;;3.53;1.73;;;13.70;58.80;;;;;;4071154;29;20139;-80
2024/02/03 15:07:47;;;;;;;3.10;1.60;;;13.60;59.20;;;;;;4070938;29;20120;-77
2024/02/03 15:09:49;;;;;;;3.97;1.70;;;13.40;59.30;;;;;;4067939;29;20109;-80
2024/02/03 15:11:51;;;;;;;4.25;1.60;;;13.40;59.70;;;;;;4068244;29;20052;-81
2024/02/03 15:13:53;;;;;;;5.53;1.75;;;13.30;60.10;;;;;;4067638;29;20048;-78
2024/02/03 15:15:55;;;;;;;17.08;3.70;;;13.30;60.50;;;;;;4067342;29;20145;-79
2024/02/03 15:17:59;;;;;;;7.80;2.00;;;13.20;60.60;;;;;;4068223;29;20087;-79
2024/02/03 15:19:59;;;;;;;5.45;1.65;;;13.00;60.90;;;;;;4067799;29;20058;-79
2024/02/03 15:22:01;;;;;;;4.72;1.65;;;12.90;61.50;;;;;;4066640;29;20084;-79
2024/02/03 15:24:03;;;;;;;3.03;1.38;;;12.90;61.80;;;;;;4068072;29;20106;-78
2024/02/03 15:26:05;;;;;;;2.97;1.25;;;12.80;62.30;;;;;;4068087;29;20116;-78
2024/02/03 15:28:06;;;;;;;2.78;1.13;;;12.70;62.40;;;;;;4067795;29;20060;-78
2024/02/03 15:30:09;;;;;;;6.15;1.75;;;12.70;62.70;;;;;;4067793;29;20052;-77
2024/02/03 15:32:12;;;;;;;5.25;1.50;;;12.60;63.00;;;;;;4066148;29;20060;-79
2024/02/03 15:34:14;;;;;;;5.43;1.73;;;12.60;63.40;;;;;;4067689;29;20048;-78
2024/02/03 15:36:17;;;;;;;3.53;1.50;;;12.50;63.50;;;;;;4067829;29;20462;-78
2024/02/03 15:38:18;;;;;;;3.92;1.50;;;12.50;63.80;;;;;;4067800;29;20108;-78
2024/02/03 15:40:20;;;;;;;4.68;1.60;;;12.40;64.00;;;;;;4065614;29;20103;-78
2024/02/03 15:42:23;;;;;;;3.28;1.55;;;12.30;64.90;;;;;;4059099;29;20088;-79
2024/02/03 15:44:25;;;;;;;3.33;1.40;;;12.30;64.90;;;;;;4062352;29;20048;-78
2024/02/03 15:46:26;;;;;;;3.08;1.55;;;12.20;65.00;;;;;;4063512;29;20060;-79
2024/02/03 15:48:29;;;;;;;3.75;1.60;;;12.10;65.20;;;;;;4070400;29;20052;-78
2024/02/03 15:50:32;;;;;;;2.60;1.15;;;12.10;65.40;;;;;;4074689;29;20048;-79
2024/02/03 15:52:34;;;;;;;4.28;1.17;;;12.10;65.60;;;;;;4067781;29;20081;-78
2024/02/03 15:54:36;;;;;;;4.47;1.60;;;11.90;66.10;;;;;;4067127;29;20482;-78
2024/02/03 15:56:37;;;;;;;2.75;1.10;;;11.90;66.70;;;;;;4079078;29;20051;-77
2024/02/03 15:58:39;;;;;;;2.35;1.00;;;11.60;67.40;;;;;;4070842;29;20039;-80
2024/02/03 16:00:41;;;;;;;3.22;1.10;;;11.50;68.20;;;;;;4083152;29;20102;-77
2024/02/03 16:02:43;;;;;;;4.20;1.25;;;11.40;68.60;;;;;;4074154;29;20460;-79
2024/02/03 16:04:46;;;;;;;3.60;1.27;;;11.30;69.00;;;;;;4066837;29;20052;-78
2024/02/03 16:06:48;;;;;;;4.57;1.45;;;11.30;69.30;;;;;;4067103;29;20055;-79
2024/02/03 16:08:50;;;;;;;4.38;2.25;;;11.20;70.10;;;;;;4066755;29;20066;-80
2024/02/03 16:10:52;;;;;;;2.92;1.25;;;11.20;70.50;;;;;;4067957;29;20147;-79
2024/02/03 16:12:53;;;;;;;3.42;1.20;;;11.10;70.70;;;;;;4067483;29;20391;-80
2024/02/03 16:14:55;;;;;;;3.72;1.55;;;11.00;70.80;;;;;;4066975;29;20119;-80
2024/02/03 16:16:57;;;;;;;4.95;1.70;;;11.00;70.90;;;;;;4070078;29;20111;-75
2024/02/03 16:18:59;;;;;;;4.22;1.70;;;11.00;71.40;;;;;;4067846;29;20076;-80
2024/02/03 16:21:03;;;;;;;4.10;1.58;;;10.90;71.30;;;;;;4057191;29;20391;-78
2024/02/03 16:23:04;;;;;;;3.67;1.40;;;10.80;71.50;;;;;;4052829;29;20124;-79
2024/02/03 16:25:07;;;;;;;3.55;1.50;;;10.70;71.50;;;;;;4060403;29;20048;-76
2024/02/03 16:27:09;;;;;;;3.80;1.75;;;10.70;72.00;;;;;;4066884;29;20447;-77
2024/02/03 16:29:11;;;;;;;5.57;1.75;;;10.70;72.20;;;;;;4059101;29;20798;-77
2024/02/03 16:31:12;;;;;;;5.15;2.30;;;10.60;72.20;;;;;;4066660;29;20048;-75
2024/02/03 16:33:14;;;;;;;4.55;2.20;;;10.60;72.20;;;;;;4061520;29;20443;-77
2024/02/03 16:35:15;;;;;;;3.28;1.75;;;10.60;72.30;;;;;;4056563;29;20075;-79
2024/02/03 16:37:19;;;;;;;3.85;1.70;;;10.50;72.80;;;;;;4067264;29;20056;-80
2024/02/03 16:39:20;;;;;;;3.58;1.60;;;10.40;73.10;;;;;;4066422;29;20111;-80
2024/02/03 16:41:23;;;;;;;3.65;1.85;;;10.40;73.40;;;;;;4066182;29;20048;-79